sensor_id;sensor_type;location;lat;lon;timestamp;pressure;altitude;pressure_sealevel;temperature;humidity
66273;BME280;58450;52.150;4.466;2023-05-19T00:00:30;102788.00;;;11.01;100.00
66273;BME280;58450;52.150;4.466;2023-05-19T00:02:59;102790.72;;;11.01;100.00
66273;BME280;58450;52.150;4.466;2023-05-19T00:05:30;102780.38;;;10.97;100.00
66273;BME280;58450;52.150;4.466;2023-05-19T00:07:58;102770.59;;;10.96;100.00
66273;BME280;58450;52.150;4.466;2023-05-19T00:10:27;102775.41;;;10.92;100.00
66273;BME280;58450;52.150;4.466;2023-05-19T00:12:56;102773.69;;;10.91;100.00
66273;BME280;58450;52.150;4.466;2023-05-19T00:15:25;102776.81;;;10.86;100.00
66273;BME280;58450;52.150;4.466;2023-05-19T00:17:53;102775.25;;;10.84;100.00
66273;BME280;58450;52.150;4.466;2023-05-19T00:20:20;102771.84;;;10.82;100.00
66273;BME280;58450;52.150;4.466;2023-05-19T00:22:49;102766.75;;;10.78;100.00
66273;BME280;58450;52.150;4.466;2023-05-19T00:25:17;102777.50;;;10.78;100.00
66273;BME280;58450;52.150;4.466;2023-05-19T00:27:44;102773.97;;;10.78;100.00
66273;BME280;58450;52.150;4.466;2023-05-19T00:30:12;102771.56;;;10.75;100.00
66273;BME280;58450;52.150;4.466;2023-05-19T00:32:40;102779.22;;;10.70;100.00
66273;BME280;58450;52.150;4.466;2023-05-19T00:35:08;102779.94;;;10.72;100.00
66273;BME280;58450;52.150;4.466;2023-05-19T00:37:36;102778.34;;;10.69;100.00
66273;BME280;58450;52.150;4.466;2023-05-19T00:40:06;102776.53;;;10.70;100.00
66273;BME280;58450;52.150;4.466;2023-05-19T00:42:36;102777.63;;;10.67;100.00
66273;BME280;58450;52.150;4.466;2023-05-19T00:45:05;102780.59;;;10.64;100.00
66273;BME280;58450;52.150;4.466;2023-05-19T00:47:33;102775.94;;;10.56;100.00
66273;BME280;58450;52.150;4.466;2023-05-19T00:50:01;102782.31;;;10.55;100.00
66273;BME280;58450;52.150;4.466;2023-05-19T00:52:28;102778.06;;;10.53;100.00
66273;BME280;58450;52.150;4.466;2023-05-19T00:54:56;102779.19;;;10.50;100.00
66273;BME280;58450;52.150;4.466;2023-05-19T00:57:25;102770.38;;;10.48;100.00
66273;BME280;58450;52.150;4.466;2023-05-19T00:59:53;102772.38;;;10.46;100.00
66273;BME280;58450;52.150;4.466;2023-05-19T01:02:21;102770.94;;;10.42;100.00
66273;BME280;58450;52.150;4.466;2023-05-19T01:04:49;102764.84;;;10.40;100.00
66273;BME280;58450;52.150;4.466;2023-05-19T01:07:18;102769.47;;;10.38;100.00
66273;BME280;58450;52.150;4.466;2023-05-19T01:09:46;102758.88;;;10.36;100.00
66273;BME280;58450;52.150;4.466;2023-05-19T01:12:14;102770.22;;;10.40;100.00
66273;BME280;58450;52.150;4.466;2023-05-19T01:14:43;102770.22;;;10.40;100.00
66273;BME280;58450;52.150;4.466;2023-05-19T01:17:18;102759.72;;;10.37;100.00
66273;BME280;58450;52.150;4.466;2023-05-19T01:19:57;102754.59;;;10.33;100.00
66273;BME280;58450;52.150;4.466;2023-05-19T01:22:47;102749.50;;;10.30;100.00
66273;BME280;58450;52.150;4.466;2023-05-19T01:25:47;102751.34;;;10.30;100.00
66273;BME280;58450;52.150;4.466;2023-05-19T01:31:35;102748.94;;;10.27;100.00
66273;BME280;58450;52.150;4.466;2023-05-19T01:34:05;102746.53;;;10.24;100.00
66273;BME280;58450;52.150;4.466;2023-05-19T01:36:34;102744.38;;;10.17;100.00
66273;BME280;58450;52.150;4.466;2023-05-19T01:39:04;102743.50;;;10.17;100.00
66273;BME280;58450;52.150;4.466;2023-05-19T01:41:33;102744.81;;;10.13;100.00
66273;BME280;58450;52.150;4.466;2023-05-19T01:44:01;102758.53;;;10.10;100.00
66273;BME280;58450;52.150;4.466;2023-05-19T01:46:29;102753.28;;;10.08;100.00
66273;BME280;58450;52.150;4.466;2023-05-19T01:48:58;102754.25;;;10.07;100.00
66273;BME280;58450;52.150;4.466;2023-05-19T01:51:26;102750.00;;;10.04;100.00
66273;BME280;58450;52.150;4.466;2023-05-19T01:53:54;102753.97;;;10.00;100.00
66273;BME280;58450;52.150;4.466;2023-05-19T01:56:30;102750.28;;;10.01;100.00
66273;BME280;58450;52.150;4.466;2023-05-19T01:59:15;102753.81;;;10.02;100.00
66273;BME280;58450;52.150;4.466;2023-05-19T02:01:56;102746.72;;;10.01;100.00
66273;BME280;58450;52.150;4.466;2023-05-19T02:04:35;102749.56;;;9.99;100.00
66273;BME280;58450;52.150;4.466;2023-05-19T02:07:14;102734.81;;;9.94;100.00
66273;BME280;58450;52.150;4.466;2023-05-19T02:09:50;102742.16;;;9.91;100.00
66273;BME280;58450;52.150;4.466;2023-05-19T02:12:24;102739.91;;;9.87;100.00
66273;BME280;58450;52.150;4.466;2023-05-19T02:14:59;102744.81;;;9.82;100.00
66273;BME280;58450;52.150;4.466;2023-05-19T02:17:32;102744.56;;;9.85;100.00
66273;BME280;58450;52.150;4.466;2023-05-19T02:20:04;102744.69;;;9.83;100.00
66273;BME280;58450;52.150;4.466;2023-05-19T02:22:34;102737.75;;;9.81;100.00
66273;BME280;58450;52.150;4.466;2023-05-19T02:25:02;102736.31;;;9.76;100.00
66273;BME280;58450;52.150;4.466;2023-05-19T02:27:29;102734.59;;;9.75;100.00
66273;BME280;58450;52.150;4.466;2023-05-19T02:29:57;102730.22;;;9.74;100.00
66273;BME280;58450;52.150;4.466;2023-05-19T02:32:24;102736.56;;;9.73;100.00
66273;BME280;58450;52.150;4.466;2023-05-19T02:34:52;102727.09;;;9.69;100.00
66273;BME280;58450;52.150;4.466;2023-05-19T02:37:22;102736.00;;;9.70;100.00
66273;BME280;58450;52.150;4.466;2023-05-19T02:39:50;102736.13;;;9.68;100.00
66273;BME280;58450;52.150;4.466;2023-05-19T02:42:17;102730.75;;;9.68;100.00
66273;BME280;58450;52.150;4.466;2023-05-19T02:44:45;102726.09;;;9.70;100.00
66273;BME280;58450;52.150;4.466;2023-05-19T02:47:13;102731.31;;;9.72;100.00
66273;BME280;58450;52.150;4.466;2023-05-19T02:49:40;102725.09;;;9.71;100.00
66273;BME280;58450;52.150;4.466;2023-05-19T02:52:09;102717.75;;;9.73;100.00
66273;BME280;58450;52.150;4.466;2023-05-19T02:54:38;102717.75;;;9.73;100.00
66273;BME280;58450;52.150;4.466;2023-05-19T02:57:05;102722.16;;;9.74;100.00
66273;BME280;58450;52.150;4.466;2023-05-19T02:59:33;102722.41;;;9.71;100.00
66273;BME280;58450;52.150;4.466;2023-05-19T03:02:01;102718.91;;;9.71;100.00
66273;BME280;58450;52.150;4.466;2023-05-19T03:04:29;102720.00;;;9.68;100.00
66273;BME280;58450;52.150;4.466;2023-05-19T03:06:56;102721.69;;;9.69;100.00
66273;BME280;58450;52.150;4.466;2023-05-19T03:09:24;102713.53;;;9.71;100.00
66273;BME280;58450;52.150;4.466;2023-05-19T03:11:53;102708.25;;;9.69;100.00
66273;BME280;58450;52.150;4.466;2023-05-19T03:14:20;102709.41;;;9.67;100.00
66273;BME280;58450;52.150;4.466;2023-05-19T03:16:49;102707.69;;;9.66;100.00
66273;BME280;58450;52.150;4.466;2023-05-19T03:19:17;102712.09;;;9.67;100.00
66273;BME280;58450;52.150;4.466;2023-05-19T03:21:44;102705.00;;;9.66;100.00
66273;BME280;58450;52.150;4.466;2023-05-19T03:24:12;102705.13;;;9.64;100.00
66273;BME280;58450;52.150;4.466;2023-05-19T03:26:40;102705.84;;;9.66;100.00
66273;BME280;58450;52.150;4.466;2023-05-19T03:29:09;102709.13;;;9.70;100.00
66273;BME280;58450;52.150;4.466;2023-05-19T03:31:36;102709.41;;;9.67;100.00
66273;BME280;58450;52.150;4.466;2023-05-19T03:34:04;102705.84;;;9.66;100.00
66273;BME280;58450;52.150;4.466;2023-05-19T03:36:31;102709.41;;;9.67;100.00
66273;BME280;58450;52.150;4.466;2023-05-19T03:39:04;102706.09;;;9.63;100.00
66273;BME280;58450;52.150;4.466;2023-05-19T03:41:32;102705.13;;;9.64;100.00
66273;BME280;58450;52.150;4.466;2023-05-19T03:44:00;102702.72;;;9.61;100.00
66273;BME280;58450;52.150;4.466;2023-05-19T03:46:28;102707.09;;;9.62;100.00
66273;BME280;58450;52.150;4.466;2023-05-19T03:48:56;102704.41;;;9.62;100.00
66273;BME280;58450;52.150;4.466;2023-05-19T03:51:23;102709.66;;;9.64;100.00
66273;BME280;58450;52.150;4.466;2023-05-19T03:53:53;102706.81;;;9.65;100.00
66273;BME280;58450;52.150;4.466;2023-05-19T03:56:21;102704.84;;;9.67;100.00
66273;BME280;58450;52.150;4.466;2023-05-19T03:58:51;102696.94;;;9.66;100.00
66273;BME280;58450;52.150;4.466;2023-05-19T04:01:19;102714.63;;;9.68;100.00
66273;BME280;58450;52.150;4.466;2023-05-19T04:03:48;102715.50;;;9.69;100.00
66273;BME280;58450;52.150;4.466;2023-05-19T04:06:16;102710.69;;;9.72;100.00
66273;BME280;58450;52.150;4.466;2023-05-19T04:08:43;102709.53;;;9.75;100.00
66273;BME280;58450;52.150;4.466;2023-05-19T04:11:11;102714.53;;;9.80;100.00
66273;BME280;58450;52.150;4.466;2023-05-19T04:13:39;102720.75;;;9.80;100.00
66273;BME280;58450;52.150;4.466;2023-05-19T04:16:06;102716.22;;;9.81;100.00
66273;BME280;58450;52.150;4.466;2023-05-19T04:18:34;102721.47;;;9.82;100.00
66273;BME280;58450;52.150;4.466;2023-05-19T04:21:03;102725.47;;;9.88;100.00
66273;BME280;58450;52.150;4.466;2023-05-19T04:23:30;102715.28;;;9.91;100.00
66273;BME280;58450;52.150;4.466;2023-05-19T04:25:58;102718.69;;;9.94;100.00
66273;BME280;58450;52.150;4.466;2023-05-19T04:28:26;102720.97;;;9.98;100.00
66273;BME280;58450;52.150;4.466;2023-05-19T04:30:54;102720.38;;;9.95;100.00
66273;BME280;58450;52.150;4.466;2023-05-19T04:33:23;102718.00;;;10.01;100.00
66273;BME280;58450;52.150;4.466;2023-05-19T04:35:50;102712.09;;;10.08;100.00
66273;BME280;58450;52.150;4.466;2023-05-19T04:38:19;102700.47;;;10.17;100.00
66273;BME280;58450;52.150;4.466;2023-05-19T04:40:47;102713.53;;;10.22;100.00
66273;BME280;58450;52.150;4.466;2023-05-19T04:43:16;102717.47;;;10.27;100.00
66273;BME280;58450;52.150;4.466;2023-05-19T04:45:44;102711.00;;;10.30;100.00
66273;BME280;58450;52.150;4.466;2023-05-19T04:48:12;102716.09;;;10.33;100.00
66273;BME280;58450;52.150;4.466;2023-05-19T04:50:40;102719.09;;;10.40;100.00
66273;BME280;58450;52.150;4.466;2023-05-19T04:53:08;102725.44;;;10.39;100.00
66273;BME280;58450;52.150;4.466;2023-05-19T04:55:37;102718.13;;;10.51;100.00
66273;BME280;58450;52.150;4.466;2023-05-19T04:58:05;102718.84;;;10.53;100.00
66273;BME280;58450;52.150;4.466;2023-05-19T05:00:33;102719.41;;;10.56;100.00
66273;BME280;58450;52.150;4.466;2023-05-19T05:03:01;102728.19;;;10.58;100.00
66273;BME280;58450;52.150;4.466;2023-05-19T05:05:30;102725.22;;;10.61;100.00
66273;BME280;58450;52.150;4.466;2023-05-19T05:07:57;102726.75;;;10.64;100.00
66273;BME280;58450;52.150;4.466;2023-05-19T05:10:25;102728.47;;;10.75;100.00
66273;BME280;58450;52.150;4.466;2023-05-19T05:12:55;102730.75;;;10.89;100.00
66273;BME280;58450;52.150;4.466;2023-05-19T05:15:23;102723.91;;;11.05;100.00
66273;BME280;58450;52.150;4.466;2023-05-19T05:17:54;102730.13;;;11.15;100.00
66273;BME280;58450;52.150;4.466;2023-05-19T05:20:22;102734.06;;;11.31;100.00
66273;BME280;58450;52.150;4.466;2023-05-19T05:22:51;102732.78;;;11.45;100.00
66273;BME280;58450;52.150;4.466;2023-05-19T05:25:19;102733.16;;;11.50;100.00
66273;BME280;58450;52.150;4.466;2023-05-19T05:27:47;102739.84;;;11.56;100.00
66273;BME280;58450;52.150;4.466;2023-05-19T05:30:17;102742.25;;;11.59;100.00
66273;BME280;58450;52.150;4.466;2023-05-19T05:32:44;102739.09;;;11.63;100.00
66273;BME280;58450;52.150;4.466;2023-05-19T05:35:12;102741.06;;;11.71;100.00
66273;BME280;58450;52.150;4.466;2023-05-19T05:37:40;102741.88;;;11.81;100.00
66273;BME280;58450;52.150;4.466;2023-05-19T05:40:08;102745.06;;;11.95;100.00
66273;BME280;58450;52.150;4.466;2023-05-19T05:42:36;102734.91;;;12.17;100.00
66273;BME280;58450;52.150;4.466;2023-05-19T05:45:04;102737.66;;;12.35;100.00
66273;BME280;58450;52.150;4.466;2023-05-19T05:47:35;102734.41;;;12.49;100.00
66273;BME280;58450;52.150;4.466;2023-05-19T05:50:05;102728.03;;;12.68;100.00
66273;BME280;58450;52.150;4.466;2023-05-19T05:52:35;102734.53;;;12.84;100.00
66273;BME280;58450;52.150;4.466;2023-05-19T05:55:05;102730.72;;;13.13;100.00
66273;BME280;58450;52.150;4.466;2023-05-19T05:57:34;102732.22;;;13.34;100.00
66273;BME280;58450;52.150;4.466;2023-05-19T06:00:02;102724.50;;;13.39;100.00
66273;BME280;58450;52.150;4.466;2023-05-19T06:02:36;102729.34;;;13.53;100.00
66273;BME280;58450;52.150;4.466;2023-05-19T06:05:04;102725.19;;;13.67;100.00
66273;BME280;58450;52.150;4.466;2023-05-19T06:07:31;102726.59;;;13.80;100.00
66273;BME280;58450;52.150;4.466;2023-05-19T06:09:59;102725.63;;;13.89;100.00
66273;BME280;58450;52.150;4.466;2023-05-19T06:12:26;102725.84;;;14.04;100.00
66273;BME280;58450;52.150;4.466;2023-05-19T06:14:54;102726.88;;;14.11;100.00
66273;BME280;58450;52.150;4.466;2023-05-19T06:17:21;102732.16;;;14.13;100.00
66273;BME280;58450;52.150;4.466;2023-05-19T06:19:50;102730.28;;;14.13;100.00
66273;BME280;58450;52.150;4.466;2023-05-19T06:22:18;102727.09;;;14.26;100.00
66273;BME280;58450;52.150;4.466;2023-05-19T06:24:45;102733.41;;;14.43;100.00
66273;BME280;58450;52.150;4.466;2023-05-19T06:27:13;102728.84;;;14.52;100.00
66273;BME280;58450;52.150;4.466;2023-05-19T06:29:40;102728.84;;;14.69;100.00
66273;BME280;58450;52.150;4.466;2023-05-19T06:32:08;102735.66;;;14.81;100.00
66273;BME280;58450;52.150;4.466;2023-05-19T06:34:35;102742.78;;;14.90;100.00
66273;BME280;58450;52.150;4.466;2023-05-19T06:37:06;102737.88;;;15.11;100.00
66273;BME280;58450;52.150;4.466;2023-05-19T06:39:34;102732.75;;;15.24;100.00
66273;BME280;58450;52.150;4.466;2023-05-19T06:42:01;102733.44;;;15.34;100.00
66273;BME280;58450;52.150;4.466;2023-05-19T06:44:29;102731.66;;;15.50;100.00
66273;BME280;58450;52.150;4.466;2023-05-19T06:46:56;102736.94;;;15.51;100.00
66273;BME280;58450;52.150;4.466;2023-05-19T06:49:24;102743.38;;;15.59;100.00
66273;BME280;58450;52.150;4.466;2023-05-19T06:51:54;102733.34;;;15.59;100.00
66273;BME280;58450;52.150;4.466;2023-05-19T06:54:23;102737.41;;;15.63;100.00
66273;BME280;58450;52.150;4.466;2023-05-19T06:56:50;102739.25;;;15.88;100.00
66273;BME280;58450;52.150;4.466;2023-05-19T06:59:18;102741.97;;;16.19;100.00
66273;BME280;58450;52.150;4.466;2023-05-19T07:01:47;102730.22;;;16.50;100.00
66273;BME280;58450;52.150;4.466;2023-05-19T07:04:14;102732.59;;;16.77;100.00
66273;BME280;58450;52.150;4.466;2023-05-19T07:06:42;102733.94;;;16.96;100.00
66273;BME280;58450;52.150;4.466;2023-05-19T07:09:09;102726.69;;;16.88;100.00
66273;BME280;58450;52.150;4.466;2023-05-19T07:11:38;102725.38;;;17.07;100.00
66273;BME280;58450;52.150;4.466;2023-05-19T07:14:06;102719.97;;;17.37;100.00
66273;BME280;58450;52.150;4.466;2023-05-19T07:16:33;102724.03;;;17.56;100.00
66273;BME280;58450;52.150;4.466;2023-05-19T07:19:01;102728.00;;;17.91;100.00
66273;BME280;58450;52.150;4.466;2023-05-19T07:21:28;102730.66;;;18.36;100.00
66273;BME280;58450;52.150;4.466;2023-05-19T07:23:56;102723.53;;;18.78;100.00
66273;BME280;58450;52.150;4.466;2023-05-19T07:26:23;102722.38;;;18.66;100.00
66273;BME280;58450;52.150;4.466;2023-05-19T07:28:52;102729.44;;;18.82;100.00
66273;BME280;58450;52.150;4.466;2023-05-19T07:31:20;102732.97;;;18.97;99.71
66273;BME280;58450;52.150;4.466;2023-05-19T07:33:47;102720.06;;;19.13;96.54
66273;BME280;58450;52.150;4.466;2023-05-19T07:36:15;102721.06;;;19.33;96.92
66273;BME280;58450;52.150;4.466;2023-05-19T07:38:42;102720.31;;;19.53;94.74
66273;BME280;58450;52.150;4.466;2023-05-19T07:41:11;102720.44;;;19.38;90.61
66273;BME280;58450;52.150;4.466;2023-05-19T07:43:39;102721.16;;;19.54;91.91
66273;BME280;58450;52.150;4.466;2023-05-19T07:46:08;102721.06;;;19.75;90.32
66273;BME280;58450;52.150;4.466;2023-05-19T07:48:35;102721.50;;;19.79;87.55
66273;BME280;58450;52.150;4.466;2023-05-19T07:51:03;102721.41;;;20.01;84.71
66273;BME280;58450;52.150;4.466;2023-05-19T07:53:31;102717.28;;;20.32;85.46
66273;BME280;58450;52.150;4.466;2023-05-19T07:55:59;102713.09;;;20.49;84.29
66273;BME280;58450;52.150;4.466;2023-05-19T07:58:26;102723.19;;;20.35;84.51
66273;BME280;58450;52.150;4.466;2023-05-19T08:00:55;102717.50;;;20.23;82.58
66273;BME280;58450;52.150;4.466;2023-05-19T08:03:25;102720.16;;;20.03;82.43
66273;BME280;58450;52.150;4.466;2023-05-19T08:05:52;102715.91;;;19.94;81.82
66273;BME280;58450;52.150;4.466;2023-05-19T08:08:20;102708.38;;;20.03;79.35
66273;BME280;58450;52.150;4.466;2023-05-19T08:10:48;102709.50;;;20.29;78.27
66273;BME280;58450;52.150;4.466;2023-05-19T08:13:15;102703.78;;;20.10;77.78
66273;BME280;58450;52.150;4.466;2023-05-19T08:15:43;102704.22;;;19.72;78.50
66273;BME280;58450;52.150;4.466;2023-05-19T08:18:11;102703.03;;;19.46;78.68
66273;BME280;58450;52.150;4.466;2023-05-19T08:20:39;102698.59;;;19.38;79.07
66273;BME280;58450;52.150;4.466;2023-05-19T08:23:07;102699.53;;;19.17;80.80
66273;BME280;58450;52.150;4.466;2023-05-19T08:25:34;102699.78;;;19.29;82.11
66273;BME280;58450;52.150;4.466;2023-05-19T08:28:02;102694.16;;;19.72;81.22
66273;BME280;58450;52.150;4.466;2023-05-19T08:30:29;102709.91;;;19.70;79.59
66273;BME280;58450;52.150;4.466;2023-05-19T08:32:57;102701.25;;;19.67;77.80
66273;BME280;58450;52.150;4.466;2023-05-19T08:35:24;102707.53;;;19.60;77.25
66273;BME280;58450;52.150;4.466;2023-05-19T08:37:53;102697.88;;;19.58;77.42
66273;BME280;58450;52.150;4.466;2023-05-19T08:40:21;102694.22;;;19.86;76.43
66273;BME280;58450;52.150;4.466;2023-05-19T08:42:49;102689.53;;;20.42;76.27
66273;BME280;58450;52.150;4.466;2023-05-19T08:45:17;102686.00;;;20.81;73.10
66273;BME280;58450;52.150;4.466;2023-05-19T08:47:45;102689.69;;;21.54;70.78
66273;BME280;58450;52.150;4.466;2023-05-19T08:50:16;102679.09;;;22.10;68.84
66273;BME280;58450;52.150;4.466;2023-05-19T08:52:51;102685.50;;;22.29;64.63
66273;BME280;58450;52.150;4.466;2023-05-19T08:55:29;102679.41;;;22.27;64.51
66273;BME280;58450;52.150;4.466;2023-05-19T08:58:00;102673.25;;;22.90;63.23
66273;BME280;58450;52.150;4.466;2023-05-19T09:00:29;102674.59;;;22.80;59.74
66273;BME280;58450;52.150;4.466;2023-05-19T09:02:59;102671.41;;;23.02;58.97
66273;BME280;58450;52.150;4.466;2023-05-19T09:05:28;102674.72;;;23.11;58.37
66273;BME280;58450;52.150;4.466;2023-05-19T09:07:56;102672.94;;;23.23;57.40
66273;BME280;58450;52.150;4.466;2023-05-19T09:10:29;102665.59;;;23.54;55.55
66273;BME280;58450;52.150;4.466;2023-05-19T09:12:56;102666.72;;;23.84;55.98
66273;BME280;58450;52.150;4.466;2023-05-19T09:15:25;102674.78;;;24.28;55.07
66273;BME280;58450;52.150;4.466;2023-05-19T09:18:05;102670.16;;;24.52;53.53
66273;BME280;58450;52.150;4.466;2023-05-19T09:20:36;102668.19;;;23.98;51.56
66273;BME280;58450;52.150;4.466;2023-05-19T09:23:05;102667.72;;;23.52;53.25
66273;BME280;58450;52.150;4.466;2023-05-19T09:25:35;102663.31;;;23.33;52.94
66273;BME280;58450;52.150;4.466;2023-05-19T09:28:02;102657.50;;;23.41;52.55
66273;BME280;58450;52.150;4.466;2023-05-19T09:30:32;102664.56;;;23.37;51.80
66273;BME280;58450;52.150;4.466;2023-05-19T09:32:59;102659.34;;;23.28;49.57
66273;BME280;58450;52.150;4.466;2023-05-19T09:35:27;102669.13;;;23.24;49.18
66273;BME280;58450;52.150;4.466;2023-05-19T09:37:54;102662.28;;;22.90;47.99
66273;BME280;58450;52.150;4.466;2023-05-19T09:40:26;102667.44;;;22.22;48.36
66273;BME280;58450;52.150;4.466;2023-05-19T09:42:56;102657.69;;;21.94;49.51
66273;BME280;58450;52.150;4.466;2023-05-19T09:45:25;102657.09;;;21.85;50.00
66273;BME280;58450;52.150;4.466;2023-05-19T09:47:55;102663.59;;;21.91;51.14
66273;BME280;58450;52.150;4.466;2023-05-19T09:50:22;102661.28;;;21.88;51.53
66273;BME280;58450;52.150;4.466;2023-05-19T09:52:50;102654.91;;;22.01;52.35
66273;BME280;58450;52.150;4.466;2023-05-19T09:55:18;102656.16;;;22.05;52.00
66273;BME280;58450;52.150;4.466;2023-05-19T09:57:48;102662.59;;;21.85;53.21
66273;BME280;58450;52.150;4.466;2023-05-19T10:00:18;102656.75;;;22.39;52.56
66273;BME280;58450;52.150;4.466;2023-05-19T10:02:46;102657.53;;;22.78;50.07
66273;BME280;58450;52.150;4.466;2023-05-19T10:05:16;102654.56;;;22.98;49.31
66273;BME280;58450;52.150;4.466;2023-05-19T10:07:46;102640.59;;;23.00;49.96
66273;BME280;58450;52.150;4.466;2023-05-19T10:10:17;102642.06;;;23.02;50.15
66273;BME280;58450;52.150;4.466;2023-05-19T10:12:46;102656.13;;;22.69;48.93
66273;BME280;58450;52.150;4.466;2023-05-19T10:15:16;102657.97;;;22.50;47.70
66273;BME280;58450;52.150;4.466;2023-05-19T10:17:45;102652.25;;;22.19;48.89
66273;BME280;58450;52.150;4.466;2023-05-19T10:20:14;102655.81;;;21.88;48.95
66273;BME280;58450;52.150;4.466;2023-05-19T10:22:44;102659.34;;;21.49;49.44
66273;BME280;58450;52.150;4.466;2023-05-19T10:25:13;102649.19;;;21.63;48.74
66273;BME280;58450;52.150;4.466;2023-05-19T10:27:46;102648.22;;;21.90;48.55
66273;BME280;58450;52.150;4.466;2023-05-19T10:30:32;102647.66;;;22.45;48.35
66273;BME280;58450;52.150;4.466;2023-05-19T10:33:02;102636.66;;;22.96;47.28
66273;BME280;58450;52.150;4.466;2023-05-19T10:35:45;102645.19;;;23.81;47.66
66273;BME280;58450;52.150;4.466;2023-05-19T10:38:31;102640.94;;;24.51;46.11
66273;BME280;58450;52.150;4.466;2023-05-19T10:41:10;102623.16;;;24.77;45.56
66273;BME280;58450;52.150;4.466;2023-05-19T10:43:48;102639.22;;;24.26;45.43
66273;BME280;58450;52.150;4.466;2023-05-19T10:46:25;102627.53;;;23.39;43.82
66273;BME280;58450;52.150;4.466;2023-05-19T10:48:53;102624.94;;;23.44;44.65
66273;BME280;58450;52.150;4.466;2023-05-19T10:51:27;102627.28;;;23.41;44.59
66273;BME280;58450;52.150;4.466;2023-05-19T10:53:57;102627.00;;;23.80;44.64
66273;BME280;58450;52.150;4.466;2023-05-19T10:56:29;102628.69;;;24.11;44.58
66273;BME280;58450;52.150;4.466;2023-05-19T10:58:58;102626.94;;;24.41;43.49
66273;BME280;58450;52.150;4.466;2023-05-19T11:01:33;102618.69;;;25.00;42.76
66273;BME280;58450;52.150;4.466;2023-05-19T11:04:06;102614.38;;;25.04;41.24
66273;BME280;58450;52.150;4.466;2023-05-19T11:06:37;102625.53;;;25.10;40.83
66273;BME280;58450;52.150;4.466;2023-05-19T11:09:11;102625.41;;;24.69;41.54
66273;BME280;58450;52.150;4.466;2023-05-19T11:11:45;102625.06;;;24.77;41.41
66273;BME280;58450;52.150;4.466;2023-05-19T11:14:15;102637.03;;;25.06;42.14
66273;BME280;58450;52.150;4.466;2023-05-19T11:16:50;102632.59;;;25.05;40.62
66273;BME280;58450;52.150;4.466;2023-05-19T11:19:24;102620.47;;;25.18;40.92
66273;BME280;58450;52.150;4.466;2023-05-19T11:21:53;102627.38;;;25.33;40.76
66273;BME280;58450;52.150;4.466;2023-05-19T11:24:41;102615.81;;;25.60;40.62
66273;BME280;58450;52.150;4.466;2023-05-19T11:27:18;102613.66;;;24.49;40.18
66273;BME280;58450;52.150;4.466;2023-05-19T11:29:47;102626.13;;;24.76;41.12
66273;BME280;58450;52.150;4.466;2023-05-19T11:32:19;102619.44;;;24.84;41.52
66273;BME280;58450;52.150;4.466;2023-05-19T11:34:47;102617.69;;;24.23;41.46
66273;BME280;58450;52.150;4.466;2023-05-19T11:37:16;102619.00;;;23.59;42.76
66273;BME280;58450;52.150;4.466;2023-05-19T11:39:45;102614.22;;;24.16;42.43
66273;BME280;58450;52.150;4.466;2023-05-19T11:42:13;102615.59;;;24.85;42.54
66273;BME280;58450;52.150;4.466;2023-05-19T11:44:41;102617.78;;;25.47;42.14
66273;BME280;58450;52.150;4.466;2023-05-19T11:47:11;102608.63;;;25.59;40.75
66273;BME280;58450;52.150;4.466;2023-05-19T11:49:43;102599.81;;;25.91;40.24
66273;BME280;58450;52.150;4.466;2023-05-19T11:52:11;102602.59;;;25.62;39.57
66273;BME280;58450;52.150;4.466;2023-05-19T11:54:39;102603.16;;;25.35;40.07
66273;BME280;58450;52.150;4.466;2023-05-19T11:57:08;102607.69;;;25.41;40.54
66273;BME280;58450;52.150;4.466;2023-05-19T11:59:37;102598.00;;;25.38;40.07
66273;BME280;58450;52.150;4.466;2023-05-19T12:02:16;102589.50;;;24.63;38.99
66273;BME280;58450;52.150;4.466;2023-05-19T12:04:47;102590.91;;;24.66;39.69
66273;BME280;58450;52.150;4.466;2023-05-19T12:07:16;102593.56;;;25.37;40.24
66273;BME280;58450;52.150;4.466;2023-05-19T12:09:45;102592.50;;;25.96;39.30
66273;BME280;58450;52.150;4.466;2023-05-19T12:12:13;102593.38;;;26.88;39.23
66273;BME280;58450;52.150;4.466;2023-05-19T12:14:42;102585.38;;;26.69;37.40
66273;BME280;58450;52.150;4.466;2023-05-19T12:17:11;102593.00;;;27.23;37.05
66273;BME280;58450;52.150;4.466;2023-05-19T12:19:40;102589.19;;;27.07;36.43
66273;BME280;58450;52.150;4.466;2023-05-19T12:22:11;102580.41;;;27.10;36.01
66273;BME280;58450;52.150;4.466;2023-05-19T12:24:39;102579.28;;;27.56;34.81
66273;BME280;58450;52.150;4.466;2023-05-19T12:27:10;102577.84;;;28.08;34.60
66273;BME280;58450;52.150;4.466;2023-05-19T12:29:39;102576.31;;;27.63;33.75
66273;BME280;58450;52.150;4.466;2023-05-19T12:32:07;102574.56;;;27.84;34.20
66273;BME280;58450;52.150;4.466;2023-05-19T12:34:35;102576.16;;;28.40;34.71
66273;BME280;58450;52.150;4.466;2023-05-19T12:37:04;102582.38;;;27.92;33.73
66273;BME280;58450;52.150;4.466;2023-05-19T12:39:33;102584.53;;;27.57;34.56
66273;BME280;58450;52.150;4.466;2023-05-19T12:42:01;102579.56;;;27.87;35.14
66273;BME280;58450;52.150;4.466;2023-05-19T12:44:29;102579.22;;;28.11;35.14
66273;BME280;58450;52.150;4.466;2023-05-19T12:46:57;102574.97;;;28.30;34.80
66273;BME280;58450;52.150;4.466;2023-05-19T12:49:25;102571.56;;;28.61;35.19
66273;BME280;58450;52.150;4.466;2023-05-19T12:51:53;102560.31;;;28.78;34.30
66273;BME280;58450;52.150;4.466;2023-05-19T12:54:20;102556.97;;;29.55;33.95
66273;BME280;58450;52.150;4.466;2023-05-19T12:56:50;102564.78;;;29.95;32.57
66273;BME280;58450;52.150;4.466;2023-05-19T12:59:22;102563.13;;;30.19;30.67